Time;durP1;ratioP1;P1;durP2;ratioP2;P2;SDS_P1;SDS_P2;PMS_P1;PMS_P2;Temp;Humidity;BMP_temperature;BMP_pressure;BME280_temperature;BME280_humidity;BME280_pressure;Samples;Min_cycle;Max_cycle;Signal;HPM_P1;HPM_P2
2024/04/18 00:00:29;;;;;;;1.98;1.40;;;;;;;;;;5438315;26;20295;-38
2024/04/18 00:02:55;;;;;;;1.63;1.52;;;;;;;;;;5443132;26;20239;-38
2024/04/18 00:05:20;;;;;;;1.05;1.05;;;;;;;;;;5453959;26;20298;-38
2024/04/18 00:07:46;;;;;;;1.38;1.20;;;;;;;;;;5450445;26;20648;-38
2024/04/18 00:10:13;;;;;;;1.25;1.10;;;;;;;;;;5438480;26;20233;-38
2024/04/18 00:12:39;;;;;;;1.30;1.20;;;;;;;;;;5446718;26;20325;-38
2024/04/18 00:15:07;;;;;;;1.27;1.17;;;;;;;;;;5449608;26;20223;-37
2024/04/18 00:17:33;;;;;;;1.67;1.40;;;;;;;;;;5455523;26;20840;-37
2024/04/18 00:19:59;;;;;;;1.52;1.30;;;;;;;;;;5445657;26;20266;-38
2024/04/18 00:22:25;;;;;;;1.88;1.40;;;;;;;;;;5452457;26;20223;-38
2024/04/18 00:24:51;;;;;;;1.25;1.15;;;;;;;;;;5453242;26;20496;-37
2024/04/18 00:27:17;;;;;;;1.83;1.23;;;;;;;;;;5456793;26;20223;-38
2024/04/18 00:29:43;;;;;;;1.67;1.23;;;;;;;;;;5438973;26;20236;-38
2024/04/18 00:32:10;;;;;;;2.05;1.27;;;;;;;;;;5433812;26;20313;-38
2024/04/18 00:34:36;;;;;;;1.70;1.17;;;;;;;;;;5451751;26;20235;-38
2024/04/18 00:37:02;;;;;;;1.52;1.23;;;;;;;;;;5441416;26;20236;-38
2024/04/18 00:39:28;;;;;;;1.65;1.23;;;;;;;;;;5444149;26;20295;-38
2024/04/18 00:41:54;;;;;;;0.90;0.90;;;;;;;;;;5450300;26;20287;-38
2024/04/18 00:44:21;;;;;;;1.70;1.00;;;;;;;;;;5450331;26;20546;-38
2024/04/18 00:46:48;;;;;;;1.35;1.05;;;;;;;;;;5454662;26;20267;-38
2024/04/18 00:49:14;;;;;;;1.35;1.00;;;;;;;;;;5445929;26;20225;-38
2024/04/18 00:51:40;;;;;;;1.67;1.40;;;;;;;;;;5444465;26;20300;-38
2024/04/18 00:54:06;;;;;;;1.08;1.00;;;;;;;;;;5452134;26;20254;-38
2024/04/18 00:56:33;;;;;;;1.45;1.10;;;;;;;;;;5448009;26;20610;-38
2024/04/18 00:58:59;;;;;;;1.52;1.20;;;;;;;;;;5447776;26;20236;-38
2024/04/18 01:01:25;;;;;;;1.10;1.00;;;;;;;;;;5452213;26;20231;-38
2024/04/18 01:03:51;;;;;;;2.08;1.05;;;;;;;;;;5442397;26;20244;-38
2024/04/18 01:06:17;;;;;;;0.90;0.90;;;;;;;;;;5452453;26;20316;-38
2024/04/18 01:08:43;;;;;;;1.02;0.98;;;;;;;;;;5448540;26;20284;-38
2024/04/18 01:11:09;;;;;;;1.00;0.90;;;;;;;;;;5448879;26;20608;-38
2024/04/18 01:13:36;;;;;;;1.20;1.10;;;;;;;;;;5438564;26;20275;-38
2024/04/18 01:16:03;;;;;;;1.08;0.98;;;;;;;;;;5444580;26;20231;-38
2024/04/18 01:18:29;;;;;;;1.15;1.02;;;;;;;;;;5435232;26;20607;-38
2024/04/18 01:20:55;;;;;;;1.30;1.20;;;;;;;;;;5436399;26;20273;-38
2024/04/18 01:23:21;;;;;;;1.17;1.00;;;;;;;;;;5450269;26;20670;-38
2024/04/18 01:25:47;;;;;;;1.13;1.02;;;;;;;;;;5455163;26;20297;-38
2024/04/18 01:28:13;;;;;;;0.90;0.90;;;;;;;;;;5452401;26;20228;-38
2024/04/18 01:30:39;;;;;;;1.30;1.20;;;;;;;;;;5442651;26;20518;-38
2024/04/18 01:33:05;;;;;;;1.10;1.00;;;;;;;;;;5440353;26;20275;-37
2024/04/18 01:35:30;;;;;;;1.90;1.00;;;;;;;;;;5448991;26;20231;-37
2024/04/18 01:37:56;;;;;;;1.20;1.10;;;;;;;;;;5452336;26;20278;-37
2024/04/18 01:40:22;;;;;;;0.85;0.82;;;;;;;;;;5430863;26;20576;-38
2024/04/18 01:42:48;;;;;;;1.00;0.90;;;;;;;;;;5443382;26;20239;-38
2024/04/18 01:45:14;;;;;;;1.38;1.05;;;;;;;;;;5455461;26;20270;-38
2024/04/18 01:47:40;;;;;;;1.13;1.02;;;;;;;;;;5444557;26;20231;-37
2024/04/18 01:50:06;;;;;;;1.08;0.98;;;;;;;;;;5448016;26;20227;-37
2024/04/18 01:52:32;;;;;;;1.00;1.00;;;;;;;;;;5451654;26;20223;-37
2024/04/18 01:54:59;;;;;;;1.10;1.00;;;;;;;;;;5443259;26;20265;-38
2024/04/18 01:57:25;;;;;;;0.80;0.80;;;;;;;;;;5445034;26;20312;-38
2024/04/18 01:59:51;;;;;;;1.05;0.90;;;;;;;;;;5438511;26;20285;-38
2024/04/18 02:02:18;;;;;;;1.48;1.05;;;;;;;;;;5447005;26;20546;-38
2024/04/18 02:04:44;;;;;;;1.02;1.00;;;;;;;;;;5443193;26;20247;-38
2024/04/18 02:07:09;;;;;;;2.08;0.80;;;;;;;;;;5445296;26;20663;-38
2024/04/18 02:09:35;;;;;;;1.23;1.13;;;;;;;;;;5452116;26;20320;-38
2024/04/18 02:12:01;;;;;;;0.80;0.77;;;;;;;;;;5448394;26;20239;-38
2024/04/18 02:14:27;;;;;;;1.23;1.00;;;;;;;;;;5438111;26;20652;-38
2024/04/18 02:16:53;;;;;;;0.90;0.90;;;;;;;;;;5451262;26;20271;-38
2024/04/18 02:19:19;;;;;;;2.05;0.90;;;;;;;;;;5441602;26;22525;-38
2024/04/18 02:21:45;;;;;;;1.33;1.10;;;;;;;;;;5447664;26;20308;-38
2024/04/18 02:24:11;;;;;;;1.08;0.80;;;;;;;;;;5446781;26;20227;-37
2024/04/18 02:26:37;;;;;;;1.83;1.08;;;;;;;;;;5422069;26;20249;-38
2024/04/18 02:29:03;;;;;;;1.05;0.90;;;;;;;;;;5421031;26;20232;-38
2024/04/18 02:31:29;;;;;;;0.90;0.90;;;;;;;;;;5437901;26;20322;-38
2024/04/18 02:33:55;;;;;;;1.15;0.90;;;;;;;;;;5453364;26;20231;-38
2024/04/18 02:36:20;;;;;;;1.27;0.93;;;;;;;;;;5449175;26;20238;-38
2024/04/18 02:38:46;;;;;;;1.00;0.90;;;;;;;;;;5441793;26;20240;-38
2024/04/18 02:41:12;;;;;;;0.73;0.70;;;;;;;;;;5443405;26;20288;-38
2024/04/18 02:43:38;;;;;;;0.82;0.82;;;;;;;;;;5442533;26;20541;-38
2024/04/18 02:46:04;;;;;;;0.95;0.90;;;;;;;;;;5447716;26;20235;-38
2024/04/18 02:48:30;;;;;;;0.90;0.90;;;;;;;;;;5431531;26;20232;-38
2024/04/18 02:50:56;;;;;;;1.25;0.90;;;;;;;;;;5438452;26;20239;-38
2024/04/18 02:53:22;;;;;;;0.85;0.82;;;;;;;;;;5440834;26;20514;-38
2024/04/18 02:55:48;;;;;;;1.15;1.00;;;;;;;;;;5449704;26;20244;-38
2024/04/18 02:58:14;;;;;;;0.75;0.75;;;;;;;;;;5453345;26;20223;-38
2024/04/18 03:00:39;;;;;;;0.75;0.75;;;;;;;;;;5448376;26;20640;-38
2024/04/18 03:03:05;;;;;;;0.85;0.80;;;;;;;;;;5431368;26;20330;-38
2024/04/18 03:05:31;;;;;;;1.08;0.98;;;;;;;;;;5440515;26;20506;-38
2024/04/18 03:07:57;;;;;;;0.80;0.80;;;;;;;;;;5445333;26;20228;-38
2024/04/18 03:10:24;;;;;;;1.00;0.80;;;;;;;;;;5426263;26;20297;-38
2024/04/18 03:12:53;;;;;;;1.02;0.85;;;;;;;;;;5447592;26;20307;-38
2024/04/18 03:15:19;;;;;;;0.90;0.90;;;;;;;;;;5460016;26;20480;-38
2024/04/18 03:17:45;;;;;;;1.05;0.90;;;;;;;;;;5445073;26;20231;-37
2024/04/18 03:20:11;;;;;;;0.93;0.80;;;;;;;;;;5452508;26;20273;-38
2024/04/18 03:22:41;;;;;;;1.02;0.70;;;;;;;;;;5443062;26;20228;-38
2024/04/18 03:25:07;;;;;;;0.82;0.80;;;;;;;;;;5452481;26;20470;-38
2024/04/18 03:27:34;;;;;;;0.85;0.80;;;;;;;;;;5440417;26;20330;-38
2024/04/18 03:30:00;;;;;;;1.17;0.90;;;;;;;;;;5449344;26;20545;-38
2024/04/18 03:32:25;;;;;;;1.10;0.88;;;;;;;;;;5451220;26;20231;-38
2024/04/18 03:34:51;;;;;;;0.98;0.88;;;;;;;;;;5442641;26;20231;-38
2024/04/18 03:37:17;;;;;;;2.80;1.00;;;;;;;;;;5446915;26;20625;-38
2024/04/18 03:39:43;;;;;;;1.67;0.80;;;;;;;;;;5441614;26;20235;-37
2024/04/18 03:42:09;;;;;;;1.13;0.80;;;;;;;;;;5442681;26;20224;-38
2024/04/18 03:44:36;;;;;;;0.70;0.70;;;;;;;;;;5442477;26;20239;-38
2024/04/18 03:47:02;;;;;;;1.25;1.00;;;;;;;;;;5447602;26;20235;-38
2024/04/18 03:49:28;;;;;;;1.55;1.05;;;;;;;;;;5424140;26;20278;-37
2024/04/18 03:51:55;;;;;;;1.10;0.98;;;;;;;;;;5438951;26;20220;-37
2024/04/18 03:54:21;;;;;;;0.80;0.80;;;;;;;;;;5456866;26;20235;-37
2024/04/18 03:56:47;;;;;;;1.00;0.90;;;;;;;;;;5453150;26;20627;-37
2024/04/18 03:59:13;;;;;;;2.17;1.20;;;;;;;;;;5449899;26;20228;-37
2024/04/18 04:01:39;;;;;;;2.78;0.90;;;;;;;;;;5452616;26;20232;-38
2024/04/18 04:04:06;;;;;;;1.30;0.98;;;;;;;;;;5442274;26;20323;-38
2024/04/18 04:06:32;;;;;;;0.80;0.80;;;;;;;;;;5447652;26;20320;-38
2024/04/18 04:08:58;;;;;;;0.70;0.70;;;;;;;;;;5437926;26;20248;-38
2024/04/18 04:11:25;;;;;;;1.80;0.80;;;;;;;;;;5445256;26;20259;-38
2024/04/18 04:13:51;;;;;;;2.47;0.95;;;;;;;;;;5456980;26;20223;-38
2024/04/18 04:16:18;;;;;;;1.10;1.00;;;;;;;;;;5459505;26;20232;-38
2024/04/18 04:18:45;;;;;;;0.93;0.75;;;;;;;;;;5454962;26;20606;-38
2024/04/18 04:21:11;;;;;;;1.30;1.20;;;;;;;;;;5445036;26;20239;-38
2024/04/18 04:23:37;;;;;;;0.73;0.73;;;;;;;;;;5441857;26;20722;-37
2024/04/18 04:26:03;;;;;;;1.15;0.80;;;;;;;;;;5453369;26;20276;-38
2024/04/18 04:28:29;;;;;;;1.40;0.95;;;;;;;;;;5450944;26;20318;-38
2024/04/18 04:30:55;;;;;;;0.77;0.77;;;;;;;;;;5455063;26;20235;-38
2024/04/18 04:33:21;;;;;;;1.38;0.90;;;;;;;;;;5454484;26;20231;-38
2024/04/18 04:35:47;;;;;;;2.05;1.00;;;;;;;;;;5450663;26;20285;-38
2024/04/18 04:38:13;;;;;;;1.00;0.73;;;;;;;;;;5445299;26;20282;-38
2024/04/18 04:40:39;;;;;;;2.53;1.00;;;;;;;;;;5447777;26;20233;-38
2024/04/18 04:43:05;;;;;;;0.98;0.90;;;;;;;;;;5438624;26;20267;-38
2024/04/18 04:45:30;;;;;;;1.42;0.90;;;;;;;;;;5455423;26;20235;-38
2024/04/18 04:47:56;;;;;;;1.08;0.98;;;;;;;;;;5450727;26;20497;-38
2024/04/18 04:50:23;;;;;;;1.27;0.85;;;;;;;;;;5455544;26;20270;-38
2024/04/18 04:52:49;;;;;;;1.73;0.80;;;;;;;;;;5444672;26;20227;-38
2024/04/18 04:55:15;;;;;;;1.08;0.70;;;;;;;;;;5454545;26;20370;-38
2024/04/18 04:57:41;;;;;;;1.20;0.70;;;;;;;;;;5452882;26;20282;-38
2024/04/18 05:00:08;;;;;;;0.70;0.70;;;;;;;;;;5440026;26;20229;-38
2024/04/18 05:02:34;;;;;;;0.98;0.82;;;;;;;;;;5446199;26;20295;-38
2024/04/18 05:05:00;;;;;;;2.85;1.05;;;;;;;;;;5442504;26;20267;-38
2024/04/18 05:07:25;;;;;;;1.00;0.90;;;;;;;;;;5446682;26;20615;-38
2024/04/18 05:09:51;;;;;;;11.60;1.80;;;;;;;;;;5448287;26;20227;-38
2024/04/18 05:12:17;;;;;;;6.80;2.00;;;;;;;;;;5449915;26;20236;-38
2024/04/18 05:14:43;;;;;;;10.40;2.22;;;;;;;;;;5459066;26;20279;-41
2024/04/18 05:17:09;;;;;;;13.50;2.40;;;;;;;;;;5452647;26;20259;-39
2024/04/18 05:19:35;;;;;;;7.97;2.20;;;;;;;;;;5452711;26;20266;-38
2024/04/18 05:22:01;;;;;;;11.13;3.15;;;;;;;;;;5444362;26;20277;-40
2024/04/18 05:24:27;;;;;;;16.45;2.20;;;;;;;;;;5429723;26;20232;-38
2024/04/18 05:26:53;;;;;;;6.20;1.77;;;;;;;;;;5439177;26;20240;-38
2024/04/18 05:32:04;;;;;;;13.90;2.35;;;;;;;;;;5450959;26;20323;-37
2024/04/18 05:34:30;;;;;;;12.45;2.50;;;;;;;;;;5438210;26;20254;-38
2024/04/18 05:36:56;;;;;;;6.93;2.17;;;;;;;;;;5438178;26;20274;-38
2024/04/18 05:39:22;;;;;;;10.38;2.03;;;;;;;;;;5437843;26;20607;-38
2024/04/18 05:41:48;;;;;;;10.65;2.70;;;;;;;;;;5450747;26;20239;-38
2024/04/18 05:44:14;;;;;;;5.72;2.38;;;;;;;;;;5441165;26;20274;-37
2024/04/18 05:46:40;;;;;;;5.85;2.15;;;;;;;;;;5438669;26;20276;-38
2024/04/18 05:49:05;;;;;;;7.85;1.70;;;;;;;;;;5443879;26;20686;-38
2024/04/18 05:51:31;;;;;;;8.50;2.22;;;;;;;;;;5428047;26;20231;-37
2024/04/18 05:53:57;;;;;;;6.00;1.77;;;;;;;;;;5441280;26;20431;-38
2024/04/18 05:56:23;;;;;;;4.78;1.83;;;;;;;;;;5442224;26;20337;-38
2024/04/18 05:58:49;;;;;;;4.63;1.77;;;;;;;;;;5434898;26;20235;-38
2024/04/18 06:01:15;;;;;;;5.75;1.85;;;;;;;;;;5436334;26;20247;-38
2024/04/18 06:03:41;;;;;;;3.30;1.80;;;;;;;;;;5439805;26;20518;-38
2024/04/18 06:06:07;;;;;;;3.65;1.60;;;;;;;;;;5444959;26;20239;-38
2024/04/18 06:08:33;;;;;;;7.80;1.63;;;;;;;;;;5442314;26;20231;-38
2024/04/18 06:10:59;;;;;;;9.30;2.00;;;;;;;;;;5446073;26;20231;-37
2024/04/18 06:13:26;;;;;;;4.93;1.52;;;;;;;;;;5437783;26;20324;-38
2024/04/18 06:15:52;;;;;;;4.35;1.80;;;;;;;;;;5447374;26;20590;-37
2024/04/18 06:18:18;;;;;;;6.25;1.27;;;;;;;;;;5444722;26;20306;-38
2024/04/18 06:20:45;;;;;;;2.88;1.80;;;;;;;;;;5447694;26;20227;-38
2024/04/18 06:23:11;;;;;;;3.78;1.45;;;;;;;;;;5436213;26;20245;-38
2024/04/18 06:25:38;;;;;;;4.80;1.88;;;;;;;;;;5432361;26;21259;-38
2024/04/18 06:28:06;;;;;;;5.90;1.60;;;;;;;;;;5433861;26;20232;-38
2024/04/18 06:30:31;;;;;;;6.28;2.00;;;;;;;;;;5448334;26;20285;-38
2024/04/18 06:32:58;;;;;;;4.20;1.95;;;;;;;;;;5439354;26;20604;-37
2024/04/18 06:35:24;;;;;;;2.45;1.50;;;;;;;;;;5436431;26;20231;-37
2024/04/18 06:37:49;;;;;;;3.65;1.48;;;;;;;;;;5443902;26;20274;-37
2024/04/18 06:40:19;;;;;;;4.00;1.60;;;;;;;;;;5443061;26;20328;-37
2024/04/18 06:42:45;;;;;;;2.50;1.30;;;;;;;;;;5437056;26;20316;-37
2024/04/18 06:45:12;;;;;;;5.55;1.58;;;;;;;;;;5444465;26;20239;-38
2024/04/18 06:47:38;;;;;;;3.47;1.65;;;;;;;;;;5439653;26;20228;-38
2024/04/18 06:50:04;;;;;;;2.25;1.30;;;;;;;;;;5430868;26;20267;-38
2024/04/18 06:52:30;;;;;;;2.15;1.45;;;;;;;;;;5427649;26;20227;-38
2024/04/18 06:54:56;;;;;;;3.78;1.70;;;;;;;;;;5431688;26;20509;-37
2024/04/18 06:57:22;;;;;;;3.30;1.40;;;;;;;;;;5441362;26;20228;-37
2024/04/18 06:59:48;;;;;;;4.32;1.77;;;;;;;;;;5452129;26;20231;-38
2024/04/18 07:02:14;;;;;;;3.55;1.52;;;;;;;;;;5453352;26;20300;-38
2024/04/18 07:04:44;;;;;;;2.78;1.50;;;;;;;;;;5447345;26;20472;-38
2024/04/18 07:07:10;;;;;;;2.33;1.67;;;;;;;;;;5431705;26;20654;-38
2024/04/18 07:09:36;;;;;;;3.95;1.30;;;;;;;;;;5437292;26;20274;-37
2024/04/18 07:12:02;;;;;;;4.38;1.67;;;;;;;;;;5435330;26;20296;-37
2024/04/18 07:14:28;;;;;;;1.85;1.25;;;;;;;;;;5433435;26;20223;-37
2024/04/18 07:16:54;;;;;;;2.58;1.58;;;;;;;;;;5452099;26;20595;-38
2024/04/18 07:19:20;;;;;;;2.47;1.58;;;;;;;;;;5437045;26;20857;-38
2024/04/18 07:21:46;;;;;;;2.00;1.40;;;;;;;;;;5439745;26;20279;-38
2024/04/18 07:24:12;;;;;;;1.75;1.40;;;;;;;;;;5436278;26;20541;-38
2024/04/18 07:26:37;;;;;;;1.75;1.33;;;;;;;;;;5449291;26;20587;-38
2024/04/18 07:29:03;;;;;;;2.03;1.40;;;;;;;;;;5455637;26;20337;-38
2024/04/18 07:31:30;;;;;;;2.05;1.40;;;;;;;;;;5433979;26;20445;-38
2024/04/18 07:33:56;;;;;;;2.90;1.35;;;;;;;;;;5428053;26;20244;-38
2024/04/18 07:36:22;;;;;;;1.80;1.30;;;;;;;;;;5438757;26;21907;-38
2024/04/18 07:38:49;;;;;;;3.40;1.55;;;;;;;;;;5430497;26;20470;-38
2024/04/18 07:41:14;;;;;;;1.48;1.05;;;;;;;;;;5451627;26;20632;-38
2024/04/18 07:43:40;;;;;;;3.03;1.67;;;;;;;;;;5444231;26;20231;-37
2024/04/18 07:46:08;;;;;;;2.58;1.25;;;;;;;;;;5445500;26;20316;-38
2024/04/18 07:48:34;;;;;;;1.85;1.48;;;;;;;;;;5435201;26;20333;-37
2024/04/18 07:51:00;;;;;;;2.55;1.38;;;;;;;;;;5446635;26;20692;-38
2024/04/18 07:53:26;;;;;;;3.38;1.50;;;;;;;;;;5435757;26;20344;-37
2024/04/18 07:55:52;;;;;;;2.45;1.33;;;;;;;;;;5452221;26;20467;-38
2024/04/18 07:58:19;;;;;;;2.47;1.25;;;;;;;;;;5440762;26;20227;-38
2024/04/18 08:00:45;;;;;;;1.38;1.08;;;;;;;;;;5445509;26;20789;-37
2024/04/18 08:03:10;;;;;;;1.83;1.40;;;;;;;;;;5449975;26;20223;-38
2024/04/18 08:05:37;;;;;;;2.38;1.20;;;;;;;;;;5456936;26;20269;-38
2024/04/18 08:08:02;;;;;;;2.15;1.38;;;;;;;;;;5451311;26;20224;-38
2024/04/18 08:10:28;;;;;;;1.50;1.23;;;;;;;;;;5441815;26;20325;-38
2024/04/18 08:12:54;;;;;;;2.45;1.35;;;;;;;;;;5442090;26;20275;-37
2024/04/18 08:15:20;;;;;;;1.67;1.33;;;;;;;;;;5449629;26;20240;-37
2024/04/18 08:17:46;;;;;;;3.97;1.20;;;;;;;;;;5446662;26;20247;-37
2024/04/18 08:20:12;;;;;;;1.77;1.08;;;;;;;;;;5448240;26;20228;-37
2024/04/18 08:22:38;;;;;;;1.67;1.30;;;;;;;;;;5452147;26;20227;-37
2024/04/18 08:25:06;;;;;;;1.67;1.25;;;;;;;;;;5449665;26;20278;-37
2024/04/18 08:27:32;;;;;;;2.08;1.20;;;;;;;;;;5453332;26;20278;-38
2024/04/18 08:29:58;;;;;;;1.85;1.20;;;;;;;;;;5446725;26;20235;-38
2024/04/18 08:32:24;;;;;;;1.25;1.15;;;;;;;;;;5441963;26;20227;-38
2024/04/18 08:34:49;;;;;;;2.33;1.30;;;;;;;;;;5439886;26;20266;-38
2024/04/18 08:37:15;;;;;;;2.10;1.33;;;;;;;;;;5451047;26;20243;-38
2024/04/18 08:39:42;;;;;;;1.58;1.23;;;;;;;;;;5436589;26;20296;-37
2024/04/18 08:42:11;;;;;;;1.38;1.13;;;;;;;;;;5448444;26;20290;-37
2024/04/18 08:44:40;;;;;;;1.80;1.27;;;;;;;;;;5442473;26;20325;-37
2024/04/18 08:47:06;;;;;;;1.83;1.05;;;;;;;;;;5437210;26;20220;-38
2024/04/18 08:49:33;;;;;;;1.33;0.93;;;;;;;;;;5446536;26;20289;-38
2024/04/18 08:52:00;;;;;;;1.30;1.13;;;;;;;;;;5449201;26;20274;-37
2024/04/18 08:54:27;;;;;;;1.48;1.13;;;;;;;;;;5450452;26;20232;-38
2024/04/18 08:56:56;;;;;;;2.67;1.17;;;;;;;;;;5453920;26;20243;-37
2024/04/18 08:59:22;;;;;;;1.20;1.10;;;;;;;;;;5451984;26;20231;-37
2024/04/18 09:01:48;;;;;;;2.15;1.17;;;;;;;;;;5439119;26;20224;-38
2024/04/18 09:04:14;;;;;;;2.40;1.02;;;;;;;;;;5438432;26;20233;-38
2024/04/18 09:06:40;;;;;;;1.20;1.10;;;;;;;;;;5448968;26;20631;-38
2024/04/18 09:09:14;;;;;;;2.70;1.05;;;;;;;;;;5454569;26;20504;-38
2024/04/18 09:11:40;;;;;;;1.75;1.00;;;;;;;;;;5437421;26;20279;-38
2024/04/18 09:14:06;;;;;;;1.77;1.00;;;;;;;;;;5437756;26;20232;-38
2024/04/18 09:16:33;;;;;;;2.95;1.00;;;;;;;;;;5446370;26;20229;-38
2024/04/18 09:18:59;;;;;;;1.63;1.00;;;;;;;;;;5438924;26;20255;-37
2024/04/18 09:21:28;;;;;;;1.10;1.00;;;;;;;;;;5437440;26;20244;-37
2024/04/18 09:23:54;;;;;;;1.13;0.88;;;;;;;;;;5445615;26;20267;-38
2024/04/18 09:26:20;;;;;;;1.27;0.90;;;;;;;;;;5450190;26;20227;-38
2024/04/18 09:28:46;;;;;;;1.17;1.08;;;;;;;;;;5447319;26;20364;-38
2024/04/18 09:31:13;;;;;;;1.92;1.20;;;;;;;;;;5432059;26;20236;-38
2024/04/18 09:33:39;;;;;;;3.97;1.27;;;;;;;;;;5451248;26;20227;-38
2024/04/18 09:36:05;;;;;;;1.13;1.00;;;;;;;;;;5434967;26;20242;-38
2024/04/18 09:38:32;;;;;;;1.08;1.02;;;;;;;;;;5428958;26;20274;-45
2024/04/18 09:41:02;;;;;;;0.93;0.90;;;;;;;;;;5437096;26;20619;-38
2024/04/18 09:43:46;;;;;;;0.60;0.60;;;;;;;;;;5455504;26;20293;-38
2024/04/18 09:46:12;;;;;;;0.85;0.80;;;;;;;;;;5446525;26;20343;-38
2024/04/18 09:48:39;;;;;;;1.05;0.90;;;;;;;;;;5442848;26;20244;-37
2024/04/18 09:51:06;;;;;;;1.20;0.70;;;;;;;;;;5436460;26;20292;-37
2024/04/18 09:53:33;;;;;;;0.80;0.80;;;;;;;;;;5443110;26;20239;-37
2024/04/18 09:55:59;;;;;;;1.58;1.10;;;;;;;;;;5453275;26;20289;-37
2024/04/18 09:58:27;;;;;;;1.15;0.90;;;;;;;;;;5442827;26;20236;-38
2024/04/18 10:00:52;;;;;;;1.40;0.90;;;;;;;;;;5448185;26;20262;-38
2024/04/18 10:03:19;;;;;;;1.13;0.80;;;;;;;;;;5445992;26;20231;-38
2024/04/18 10:05:48;;;;;;;0.80;0.80;;;;;;;;;;5442011;26;20282;-38
2024/04/18 10:08:14;;;;;;;0.70;0.70;;;;;;;;;;5446920;26;20235;-38
2024/04/18 10:10:42;;;;;;;1.77;0.88;;;;;;;;;;5433137;26;20231;-38
2024/04/18 10:13:09;;;;;;;0.85;0.85;;;;;;;;;;5436433;26;20241;-38
2024/04/18 10:15:35;;;;;;;0.70;0.70;;;;;;;;;;5447505;26;20505;-38
2024/04/18 10:18:11;;;;;;;0.70;0.70;;;;;;;;;;5446424;26;20252;-38
2024/04/18 10:20:41;;;;;;;1.35;1.00;;;;;;;;;;5435408;26;20358;-37
2024/04/18 10:23:11;;;;;;;3.13;2.00;;;;;;;;;;5444927;26;20666;-38
2024/04/18 10:25:40;;;;;;;1.33;0.82;;;;;;;;;;5448128;26;20635;-38
2024/04/18 10:28:16;;;;;;;1.25;1.15;;;;;;;;;;5447088;26;20565;-38
2024/04/18 10:30:43;;;;;;;1.58;0.95;;;;;;;;;;5444303;26;20289;-38
2024/04/18 10:33:08;;;;;;;1.20;1.08;;;;;;;;;;5448749;26;20232;-38
2024/04/18 10:35:35;;;;;;;0.80;0.70;;;;;;;;;;5450869;26;20235;-38
2024/04/18 10:38:02;;;;;;;1.40;0.77;;;;;;;;;;5449199;26;20556;-38
2024/04/18 10:40:28;;;;;;;1.30;1.15;;;;;;;;;;5448837;26;20308;-37
2024/04/18 10:43:15;;;;;;;1.33;0.95;;;;;;;;;;5439678;26;20611;-37
2024/04/18 10:45:42;;;;;;;0.93;0.80;;;;;;;;;;5452519;26;20231;-38
2024/04/18 10:48:08;;;;;;;1.23;0.80;;;;;;;;;;5445411;26;20236;-38
2024/04/18 10:50:38;;;;;;;0.82;0.70;;;;;;;;;;5448711;26;20513;-38
2024/04/18 10:53:04;;;;;;;3.63;0.88;;;;;;;;;;5442124;26;20246;-37
2024/04/18 10:55:32;;;;;;;0.82;0.80;;;;;;;;;;5436362;26;20668;-37
2024/04/18 10:57:59;;;;;;;1.70;1.00;;;;;;;;;;5453808;26;20231;-38
2024/04/18 11:00:25;;;;;;;1.65;0.70;;;;;;;;;;5443301;26;20235;-38
2024/04/18 11:02:56;;;;;;;0.63;0.63;;;;;;;;;;5432698;26;20236;-38
2024/04/18 11:05:21;;;;;;;0.60;0.60;;;;;;;;;;5450577;26;20278;-38
2024/04/18 11:07:49;;;;;;;3.53;0.80;;;;;;;;;;5443621;26;20308;-38
2024/04/18 11:10:15;;;;;;;0.75;0.70;;;;;;;;;;5437074;26;20666;-38
2024/04/18 11:12:41;;;;;;;0.82;0.70;;;;;;;;;;5437487;26;20316;-38
2024/04/18 11:15:07;;;;;;;0.90;0.82;;;;;;;;;;5433716;26;20224;-38
2024/04/18 11:17:36;;;;;;;2.08;0.73;;;;;;;;;;5449560;26;20650;-38
2024/04/18 11:20:02;;;;;;;0.65;0.60;;;;;;;;;;5447549;26;20232;-38
2024/04/18 11:22:28;;;;;;;0.60;0.60;;;;;;;;;;5437957;26;20278;-38
2024/04/18 11:24:55;;;;;;;2.97;0.80;;;;;;;;;;5442354;26;20228;-38
2024/04/18 11:27:25;;;;;;;2.85;0.60;;;;;;;;;;5445566;26;20279;-38
2024/04/18 11:29:51;;;;;;;1.05;0.70;;;;;;;;;;5438781;26;20232;-38
2024/04/18 11:32:17;;;;;;;1.77;0.75;;;;;;;;;;5442914;26;20232;-38
2024/04/18 11:34:44;;;;;;;1.08;0.75;;;;;;;;;;5439083;26;20299;-38
2024/04/18 11:37:13;;;;;;;1.98;0.85;;;;;;;;;;5444025;26;20227;-37
2024/04/18 11:39:40;;;;;;;4.72;0.73;;;;;;;;;;5448495;26;20265;-37
2024/04/18 11:42:06;;;;;;;4.00;0.70;;;;;;;;;;5438384;26;20228;-37
2024/04/18 11:44:32;;;;;;;2.72;1.75;;;;;;;;;;5445261;26;20439;-37
2024/04/18 11:46:58;;;;;;;3.15;0.90;;;;;;;;;;5452478;26;20693;-37
2024/04/18 11:49:25;;;;;;;3.28;0.80;;;;;;;;;;5451809;26;20269;-37
2024/04/18 11:51:51;;;;;;;1.15;0.77;;;;;;;;;;5447503;26;20254;-37
2024/04/18 11:54:16;;;;;;;1.55;0.68;;;;;;;;;;5452389;26;20310;-37
2024/04/18 11:56:42;;;;;;;1.48;0.80;;;;;;;;;;5446703;26;20629;-37
2024/04/18 11:59:08;;;;;;;3.10;0.68;;;;;;;;;;5451606;26;20317;-37
2024/04/18 12:01:34;;;;;;;0.80;0.70;;;;;;;;;;5431577;26;20224;-37
2024/04/18 12:04:00;;;;;;;4.68;1.00;;;;;;;;;;5449096;26;20231;-36
2024/04/18 12:06:26;;;;;;;1.17;0.82;;;;;;;;;;5440362;26;20269;-37
2024/04/18 12:08:52;;;;;;;1.75;0.65;;;;;;;;;;5451354;26;20223;-37
2024/04/18 12:11:18;;;;;;;0.60;0.60;;;;;;;;;;5446951;26;20641;-37
2024/04/18 12:13:44;;;;;;;0.77;0.70;;;;;;;;;;5437717;26;20317;-37
2024/04/18 12:16:10;;;;;;;0.60;0.60;;;;;;;;;;5444034;26;20244;-37
2024/04/18 12:18:35;;;;;;;1.45;0.85;;;;;;;;;;5449239;26;20228;-37
2024/04/18 12:21:02;;;;;;;2.05;0.60;;;;;;;;;;5440565;26;20230;-37
2024/04/18 12:23:32;;;;;;;2.03;0.85;;;;;;;;;;5438589;26;20236;-37
2024/04/18 12:25:58;;;;;;;1.20;0.70;;;;;;;;;;5440191;26;20232;-37
2024/04/18 12:28:24;;;;;;;0.70;0.70;;;;;;;;;;5449426;26;20318;-37
2024/04/18 12:30:50;;;;;;;0.82;0.70;;;;;;;;;;5437792;26;20279;-37
2024/04/18 12:33:15;;;;;;;0.60;0.60;;;;;;;;;;5442799;26;20455;-37
2024/04/18 12:35:41;;;;;;;1.67;0.82;;;;;;;;;;5437466;26;20233;-37
2024/04/18 12:38:07;;;;;;;2.00;0.75;;;;;;;;;;5448255;26;20492;-37
2024/04/18 12:40:33;;;;;;;0.85;0.70;;;;;;;;;;5446078;26;20224;-37
2024/04/18 12:42:59;;;;;;;1.05;0.60;;;;;;;;;;5441776;26;20282;-37
2024/04/18 12:45:25;;;;;;;3.20;0.77;;;;;;;;;;5451869;26;20235;-37
2024/04/18 12:47:57;;;;;;;0.55;0.55;;;;;;;;;;5453418;26;20231;-37
2024/04/18 12:50:23;;;;;;;2.97;1.10;;;;;;;;;;5436298;26;20627;-42
2024/04/18 12:52:49;;;;;;;1.50;0.75;;;;;;;;;;5428794;26;20248;-37
2024/04/18 12:55:15;;;;;;;2.45;0.73;;;;;;;;;;5438612;26;20280;-37
2024/04/18 12:57:40;;;;;;;4.28;1.00;;;;;;;;;;5450973;26;20255;-37
2024/04/18 13:00:07;;;;;;;4.13;0.90;;;;;;;;;;5430319;26;20326;-37
2024/04/18 13:02:33;;;;;;;9.13;1.13;;;;;;;;;;5453618;26;20298;-37
2024/04/18 13:04:58;;;;;;;5.18;1.00;;;;;;;;;;5437989;26;20709;-37
2024/04/18 13:07:26;;;;;;;2.67;1.45;;;;;;;;;;5444354;26;20235;-37
2024/04/18 13:09:51;;;;;;;2.30;0.90;;;;;;;;;;5448398;26;20242;-37
2024/04/18 13:12:17;;;;;;;4.68;0.82;;;;;;;;;;5432584;26;20269;-36
2024/04/18 13:14:43;;;;;;;1.52;0.85;;;;;;;;;;5432288;26;20247;-36
2024/04/18 13:17:09;;;;;;;1.77;0.70;;;;;;;;;;5445933;26;21181;-38
2024/04/18 13:19:35;;;;;;;1.52;0.88;;;;;;;;;;5441666;26;20231;-36
2024/04/18 13:22:01;;;;;;;1.75;0.70;;;;;;;;;;5443202;26;20586;-36
2024/04/18 13:24:27;;;;;;;1.60;0.80;;;;;;;;;;5442113;26;20227;-37
2024/04/18 13:26:53;;;;;;;1.73;0.55;;;;;;;;;;5444479;26;20282;-37
2024/04/18 13:29:20;;;;;;;1.17;0.70;;;;;;;;;;5449611;26;20554;-37
2024/04/18 13:31:46;;;;;;;1.23;0.50;;;;;;;;;;5441132;26;20311;-37
2024/04/18 13:34:12;;;;;;;1.75;0.52;;;;;;;;;;5443312;26;20274;-37
2024/04/18 13:36:38;;;;;;;1.40;0.63;;;;;;;;;;5446533;26;20228;-37
2024/04/18 13:39:04;;;;;;;3.25;0.90;;;;;;;;;;5432345;26;20232;-37
2024/04/18 13:41:36;;;;;;;1.23;0.80;;;;;;;;;;5450451;26;20240;-37
2024/04/18 13:44:02;;;;;;;1.15;0.50;;;;;;;;;;5431049;26;20240;-37
2024/04/18 13:46:27;;;;;;;3.13;0.60;;;;;;;;;;5444684;26;20270;-37
2024/04/18 13:48:53;;;;;;;2.45;0.63;;;;;;;;;;5446375;26;20311;-37
2024/04/18 13:51:19;;;;;;;1.38;0.80;;;;;;;;;;5442673;26;20321;-37
2024/04/18 13:53:45;;;;;;;2.75;0.70;;;;;;;;;;5444540;26;20875;-37
2024/04/18 13:56:11;;;;;;;0.93;0.70;;;;;;;;;;5453467;26;20232;-37
2024/04/18 13:58:37;;;;;;;10.88;1.15;;;;;;;;;;5445639;26;20223;-37
2024/04/18 14:01:03;;;;;;;0.60;0.60;;;;;;;;;;5446531;26;20274;-37
2024/04/18 14:03:30;;;;;;;1.52;0.70;;;;;;;;;;5446372;26;20228;-37
2024/04/18 14:05:56;;;;;;;0.65;0.65;;;;;;;;;;5441736;26;20704;-37
2024/04/18 14:08:22;;;;;;;0.60;0.60;;;;;;;;;;5433991;26;20283;-37
2024/04/18 14:10:48;;;;;;;4.25;0.93;;;;;;;;;;5443871;26;20227;-37
2024/04/18 14:13:14;;;;;;;0.93;0.70;;;;;;;;;;5432760;26;20240;-37
2024/04/18 14:18:47;;;;;;;0.98;0.88;;;;;;;;;;5444759;26;20309;-37
2024/04/18 14:21:11;;;;;;;2.42;0.70;;;;;;;;;;5449307;26;20281;-37
2024/04/18 14:23:36;;;;;;;0.80;0.80;;;;;;;;;;5437240;26;20235;-37
2024/04/18 14:26:03;;;;;;;3.53;1.00;;;;;;;;;;5442628;26;20224;-37
2024/04/18 14:28:29;;;;;;;0.70;0.60;;;;;;;;;;5435242;26;20591;-37
2024/04/18 14:30:55;;;;;;;0.95;0.75;;;;;;;;;;5435903;26;20331;-37
2024/04/18 14:33:21;;;;;;;2.17;0.75;;;;;;;;;;5430575;26;20231;-37
2024/04/18 14:35:47;;;;;;;1.90;0.70;;;;;;;;;;5434589;26;20872;-37
2024/04/18 14:38:12;;;;;;;2.15;0.73;;;;;;;;;;5442508;26;20282;-37
2024/04/18 14:40:38;;;;;;;0.60;0.60;;;;;;;;;;5438157;26;20247;-37
2024/04/18 14:43:04;;;;;;;0.50;0.50;;;;;;;;;;5450698;26;20305;-37